sensor_id;sensor_type;location;lat;lon;timestamp;temperature;humidity
19342;DHT22;9807;48.258;12.690;2023-12-14T00:00:19;6.10;99.90
19342;DHT22;9807;48.258;12.690;2023-12-14T00:02:44;6.00;99.90
19342;DHT22;9807;48.258;12.690;2023-12-14T00:05:10;6.00;99.90
19342;DHT22;9807;48.258;12.690;2023-12-14T00:07:36;6.00;99.90
19342;DHT22;9807;48.258;12.690;2023-12-14T00:10:02;6.10;99.90
19342;DHT22;9807;48.258;12.690;2023-12-14T00:12:28;6.10;99.90
19342;DHT22;9807;48.258;12.690;2023-12-14T00:14:54;6.10;99.90
19342;DHT22;9807;48.258;12.690;2023-12-14T00:17:20;6.10;99.90
19342;DHT22;9807;48.258;12.690;2023-12-14T00:19:45;6.10;99.90
19342;DHT22;9807;48.258;12.690;2023-12-14T00:22:11;6.00;99.90
19342;DHT22;9807;48.258;12.690;2023-12-14T00:24:36;6.00;99.90
19342;DHT22;9807;48.258;12.690;2023-12-14T00:27:02;6.10;99.90
19342;DHT22;9807;48.258;12.690;2023-12-14T00:29:27;6.10;99.90
19342;DHT22;9807;48.258;12.690;2023-12-14T00:31:53;6.10;99.90
19342;DHT22;9807;48.258;12.690;2023-12-14T00:34:19;6.20;99.90
19342;DHT22;9807;48.258;12.690;2023-12-14T00:36:45;6.40;99.90
19342;DHT22;9807;48.258;12.690;2023-12-14T00:39:10;6.60;99.90
19342;DHT22;9807;48.258;12.690;2023-12-14T00:41:36;6.80;99.90
19342;DHT22;9807;48.258;12.690;2023-12-14T00:44:02;7.00;99.90
19342;DHT22;9807;48.258;12.690;2023-12-14T00:46:28;7.00;99.90
19342;DHT22;9807;48.258;12.690;2023-12-14T00:48:53;6.90;99.90
19342;DHT22;9807;48.258;12.690;2023-12-14T00:51:19;6.80;99.90
19342;DHT22;9807;48.258;12.690;2023-12-14T00:53:45;6.70;99.90
19342;DHT22;9807;48.258;12.690;2023-12-14T00:56:10;6.60;99.90
19342;DHT22;9807;48.258;12.690;2023-12-14T00:58:36;6.40;99.90
19342;DHT22;9807;48.258;12.690;2023-12-14T01:01:01;6.30;99.90
19342;DHT22;9807;48.258;12.690;2023-12-14T01:03:27;6.20;99.90
19342;DHT22;9807;48.258;12.690;2023-12-14T01:05:53;6.00;99.90
19342;DHT22;9807;48.258;12.690;2023-12-14T01:08:18;6.00;99.90
19342;DHT22;9807;48.258;12.690;2023-12-14T01:10:44;6.00;99.90
19342;DHT22;9807;48.258;12.690;2023-12-14T01:13:10;5.90;99.90
19342;DHT22;9807;48.258;12.690;2023-12-14T01:15:35;6.00;99.90
19342;DHT22;9807;48.258;12.690;2023-12-14T01:18:01;5.90;99.90
19342;DHT22;9807;48.258;12.690;2023-12-14T01:20:26;5.90;99.90
19342;DHT22;9807;48.258;12.690;2023-12-14T01:22:52;6.00;99.90
19342;DHT22;9807;48.258;12.690;2023-12-14T01:25:18;5.90;99.90
19342;DHT22;9807;48.258;12.690;2023-12-14T01:27:44;5.90;99.90
19342;DHT22;9807;48.258;12.690;2023-12-14T01:30:10;5.80;99.90
19342;DHT22;9807;48.258;12.690;2023-12-14T01:32:35;5.80;99.90
19342;DHT22;9807;48.258;12.690;2023-12-14T01:35:01;5.80;99.90
19342;DHT22;9807;48.258;12.690;2023-12-14T01:37:27;5.70;99.90
19342;DHT22;9807;48.258;12.690;2023-12-14T01:39:53;5.80;99.90
19342;DHT22;9807;48.258;12.690;2023-12-14T01:42:18;5.80;99.90
19342;DHT22;9807;48.258;12.690;2023-12-14T01:44:44;5.90;99.90
19342;DHT22;9807;48.258;12.690;2023-12-14T01:47:10;5.80;99.90
19342;DHT22;9807;48.258;12.690;2023-12-14T01:49:35;5.90;99.90
19342;DHT22;9807;48.258;12.690;2023-12-14T01:52:01;5.90;99.90
19342;DHT22;9807;48.258;12.690;2023-12-14T01:54:26;5.90;99.90
19342;DHT22;9807;48.258;12.690;2023-12-14T01:56:52;6.00;99.90
19342;DHT22;9807;48.258;12.690;2023-12-14T01:59:19;5.90;99.90
19342;DHT22;9807;48.258;12.690;2023-12-14T02:01:47;5.90;99.90
19342;DHT22;9807;48.258;12.690;2023-12-14T02:04:17;5.90;99.90
19342;DHT22;9807;48.258;12.690;2023-12-14T02:06:42;5.90;99.90
19342;DHT22;9807;48.258;12.690;2023-12-14T02:09:08;5.90;99.90
19342;DHT22;9807;48.258;12.690;2023-12-14T02:11:34;5.90;99.90
19342;DHT22;9807;48.258;12.690;2023-12-14T02:14:04;5.80;99.90
19342;DHT22;9807;48.258;12.690;2023-12-14T02:16:30;5.80;99.90
19342;DHT22;9807;48.258;12.690;2023-12-14T02:18:57;5.80;99.90
19342;DHT22;9807;48.258;12.690;2023-12-14T02:21:22;5.80;99.90
19342;DHT22;9807;48.258;12.690;2023-12-14T02:23:48;5.80;99.90
19342;DHT22;9807;48.258;12.690;2023-12-14T02:26:14;5.80;99.90
19342;DHT22;9807;48.258;12.690;2023-12-14T02:28:40;5.80;99.90
19342;DHT22;9807;48.258;12.690;2023-12-14T02:31:07;5.70;99.90
19342;DHT22;9807;48.258;12.690;2023-12-14T02:33:32;5.80;99.90
19342;DHT22;9807;48.258;12.690;2023-12-14T02:35:59;5.70;99.90
19342;DHT22;9807;48.258;12.690;2023-12-14T02:38:25;5.80;99.90
19342;DHT22;9807;48.258;12.690;2023-12-14T02:40:50;5.80;99.90
19342;DHT22;9807;48.258;12.690;2023-12-14T02:43:18;5.80;99.90
19342;DHT22;9807;48.258;12.690;2023-12-14T02:45:44;5.80;99.90
19342;DHT22;9807;48.258;12.690;2023-12-14T02:48:10;5.80;99.90
19342;DHT22;9807;48.258;12.690;2023-12-14T02:50:36;5.80;99.90
19342;DHT22;9807;48.258;12.690;2023-12-14T02:53:01;5.80;99.90
19342;DHT22;9807;48.258;12.690;2023-12-14T02:55:27;5.80;99.90
19342;DHT22;9807;48.258;12.690;2023-12-14T02:57:53;5.80;99.90
19342;DHT22;9807;48.258;12.690;2023-12-14T03:00:19;5.80;99.90
19342;DHT22;9807;48.258;12.690;2023-12-14T03:02:44;5.80;99.90
19342;DHT22;9807;48.258;12.690;2023-12-14T03:05:10;5.80;99.90
19342;DHT22;9807;48.258;12.690;2023-12-14T03:07:36;5.80;99.90
19342;DHT22;9807;48.258;12.690;2023-12-14T03:10:03;5.80;99.90
19342;DHT22;9807;48.258;12.690;2023-12-14T03:12:29;5.80;99.90
19342;DHT22;9807;48.258;12.690;2023-12-14T03:14:57;5.70;99.90
19342;DHT22;9807;48.258;12.690;2023-12-14T03:17:22;5.70;99.90
19342;DHT22;9807;48.258;12.690;2023-12-14T03:19:48;5.70;99.90
19342;DHT22;9807;48.258;12.690;2023-12-14T03:22:14;5.70;99.90
19342;DHT22;9807;48.258;12.690;2023-12-14T03:24:40;5.70;99.90
19342;DHT22;9807;48.258;12.690;2023-12-14T03:27:05;5.70;99.90
19342;DHT22;9807;48.258;12.690;2023-12-14T03:29:31;5.70;99.90
19342;DHT22;9807;48.258;12.690;2023-12-14T03:31:57;5.60;99.90
19342;DHT22;9807;48.258;12.690;2023-12-14T03:34:23;5.70;99.90
19342;DHT22;9807;48.258;12.690;2023-12-14T03:36:49;5.70;99.90
19342;DHT22;9807;48.258;12.690;2023-12-14T03:39:15;5.70;99.90
19342;DHT22;9807;48.258;12.690;2023-12-14T03:41:44;5.60;99.90
19342;DHT22;9807;48.258;12.690;2023-12-14T03:44:10;5.70;99.90
19342;DHT22;9807;48.258;12.690;2023-12-14T03:46:35;5.70;99.90
19342;DHT22;9807;48.258;12.690;2023-12-14T03:49:01;5.60;99.90
19342;DHT22;9807;48.258;12.690;2023-12-14T03:51:27;5.60;99.90
19342;DHT22;9807;48.258;12.690;2023-12-14T03:53:53;5.70;99.90
19342;DHT22;9807;48.258;12.690;2023-12-14T03:56:18;5.70;99.90
19342;DHT22;9807;48.258;12.690;2023-12-14T03:58:44;5.70;99.90
19342;DHT22;9807;48.258;12.690;2023-12-14T04:01:17;5.80;99.90
19342;DHT22;9807;48.258;12.690;2023-12-14T04:03:43;5.80;99.90
19342;DHT22;9807;48.258;12.690;2023-12-14T04:06:10;5.70;99.90
19342;DHT22;9807;48.258;12.690;2023-12-14T04:08:36;5.60;99.90
19342;DHT22;9807;48.258;12.690;2023-12-14T04:11:01;5.70;99.90
19342;DHT22;9807;48.258;12.690;2023-12-14T04:13:27;5.60;99.90
19342;DHT22;9807;48.258;12.690;2023-12-14T04:15:53;5.60;99.90
19342;DHT22;9807;48.258;12.690;2023-12-14T04:18:18;5.50;99.90
19342;DHT22;9807;48.258;12.690;2023-12-14T04:20:44;5.50;99.90
19342;DHT22;9807;48.258;12.690;2023-12-14T04:23:09;5.60;99.90
19342;DHT22;9807;48.258;12.690;2023-12-14T04:25:35;5.60;99.90
19342;DHT22;9807;48.258;12.690;2023-12-14T04:28:01;5.60;99.90
19342;DHT22;9807;48.258;12.690;2023-12-14T04:30:26;5.60;99.90
19342;DHT22;9807;48.258;12.690;2023-12-14T04:32:52;5.60;99.90
19342;DHT22;9807;48.258;12.690;2023-12-14T04:35:18;5.60;99.90
19342;DHT22;9807;48.258;12.690;2023-12-14T04:37:44;5.70;99.90
19342;DHT22;9807;48.258;12.690;2023-12-14T04:40:10;5.70;99.90
19342;DHT22;9807;48.258;12.690;2023-12-14T04:42:36;5.70;99.90
19342;DHT22;9807;48.258;12.690;2023-12-14T04:45:01;5.70;99.90
19342;DHT22;9807;48.258;12.690;2023-12-14T04:47:27;5.80;99.90
19342;DHT22;9807;48.258;12.690;2023-12-14T04:49:54;5.90;99.90
19342;DHT22;9807;48.258;12.690;2023-12-14T04:52:19;5.90;99.90
19342;DHT22;9807;48.258;12.690;2023-12-14T04:54:45;5.90;99.90
19342;DHT22;9807;48.258;12.690;2023-12-14T04:57:10;5.90;99.90
19342;DHT22;9807;48.258;12.690;2023-12-14T04:59:36;5.90;99.90
19342;DHT22;9807;48.258;12.690;2023-12-14T05:02:02;5.90;99.90
19342;DHT22;9807;48.258;12.690;2023-12-14T05:04:27;5.90;99.90
19342;DHT22;9807;48.258;12.690;2023-12-14T05:06:53;5.90;99.90
19342;DHT22;9807;48.258;12.690;2023-12-14T05:09:19;5.90;99.90
19342;DHT22;9807;48.258;12.690;2023-12-14T05:11:45;6.00;99.90
19342;DHT22;9807;48.258;12.690;2023-12-14T05:14:10;6.00;99.90
19342;DHT22;9807;48.258;12.690;2023-12-14T05:16:36;6.00;99.90
19342;DHT22;9807;48.258;12.690;2023-12-14T05:19:02;6.00;99.90
19342;DHT22;9807;48.258;12.690;2023-12-14T05:21:27;6.00;99.90
19342;DHT22;9807;48.258;12.690;2023-12-14T05:23:53;6.00;99.90
19342;DHT22;9807;48.258;12.690;2023-12-14T05:26:19;6.00;99.90
19342;DHT22;9807;48.258;12.690;2023-12-14T05:28:45;6.00;99.90
19342;DHT22;9807;48.258;12.690;2023-12-14T05:31:10;6.00;99.90
19342;DHT22;9807;48.258;12.690;2023-12-14T05:33:37;5.90;99.90
19342;DHT22;9807;48.258;12.690;2023-12-14T05:36:04;5.90;99.90
19342;DHT22;9807;48.258;12.690;2023-12-14T05:38:34;5.90;99.90
19342;DHT22;9807;48.258;12.690;2023-12-14T05:41:00;5.80;99.90
19342;DHT22;9807;48.258;12.690;2023-12-14T05:43:25;5.80;99.90
19342;DHT22;9807;48.258;12.690;2023-12-14T05:45:51;5.80;99.90
19342;DHT22;9807;48.258;12.690;2023-12-14T05:48:16;5.90;99.90
19342;DHT22;9807;48.258;12.690;2023-12-14T05:50:42;5.90;99.90
19342;DHT22;9807;48.258;12.690;2023-12-14T05:53:08;5.90;99.90
19342;DHT22;9807;48.258;12.690;2023-12-14T05:55:33;6.00;99.90
19342;DHT22;9807;48.258;12.690;2023-12-14T05:57:59;6.00;99.90
19342;DHT22;9807;48.258;12.690;2023-12-14T06:00:24;6.00;99.90
19342;DHT22;9807;48.258;12.690;2023-12-14T06:02:50;6.00;99.90
19342;DHT22;9807;48.258;12.690;2023-12-14T06:05:16;6.00;99.90
19342;DHT22;9807;48.258;12.690;2023-12-14T06:07:41;6.00;99.90
19342;DHT22;9807;48.258;12.690;2023-12-14T06:10:07;6.00;99.90
19342;DHT22;9807;48.258;12.690;2023-12-14T06:12:33;6.00;99.90
19342;DHT22;9807;48.258;12.690;2023-12-14T06:14:58;6.00;99.90
19342;DHT22;9807;48.258;12.690;2023-12-14T06:17:24;6.00;99.90
19342;DHT22;9807;48.258;12.690;2023-12-14T06:19:50;6.00;99.90
19342;DHT22;9807;48.258;12.690;2023-12-14T06:22:15;6.10;99.90
19342;DHT22;9807;48.258;12.690;2023-12-14T06:24:41;6.10;99.90
19342;DHT22;9807;48.258;12.690;2023-12-14T06:27:07;6.10;99.90
19342;DHT22;9807;48.258;12.690;2023-12-14T06:29:32;6.20;99.90
19342;DHT22;9807;48.258;12.690;2023-12-14T06:31:58;6.30;99.90
19342;DHT22;9807;48.258;12.690;2023-12-14T06:34:23;6.30;99.90
19342;DHT22;9807;48.258;12.690;2023-12-14T06:36:49;6.30;99.90
19342;DHT22;9807;48.258;12.690;2023-12-14T06:39:15;6.30;99.90
19342;DHT22;9807;48.258;12.690;2023-12-14T06:41:41;6.20;99.90
19342;DHT22;9807;48.258;12.690;2023-12-14T06:44:07;6.20;99.90
19342;DHT22;9807;48.258;12.690;2023-12-14T06:46:34;6.20;99.90
19342;DHT22;9807;48.258;12.690;2023-12-14T06:49:00;6.20;99.90
19342;DHT22;9807;48.258;12.690;2023-12-14T06:51:25;6.10;99.90
19342;DHT22;9807;48.258;12.690;2023-12-14T06:53:51;6.10;99.90
19342;DHT22;9807;48.258;12.690;2023-12-14T06:56:17;6.00;99.90
19342;DHT22;9807;48.258;12.690;2023-12-14T06:58:44;6.00;99.90
19342;DHT22;9807;48.258;12.690;2023-12-14T07:01:16;6.00;99.90
19342;DHT22;9807;48.258;12.690;2023-12-14T07:03:43;6.00;99.90
19342;DHT22;9807;48.258;12.690;2023-12-14T07:06:17;6.00;99.90
19342;DHT22;9807;48.258;12.690;2023-12-14T07:08:43;6.00;99.90
19342;DHT22;9807;48.258;12.690;2023-12-14T07:11:10;6.00;99.90
19342;DHT22;9807;48.258;12.690;2023-12-14T07:13:36;6.00;99.90
19342;DHT22;9807;48.258;12.690;2023-12-14T07:16:06;6.10;99.90
19342;DHT22;9807;48.258;12.690;2023-12-14T07:18:41;6.00;99.90
19342;DHT22;9807;48.258;12.690;2023-12-14T07:21:07;6.00;99.90
19342;DHT22;9807;48.258;12.690;2023-12-14T07:23:34;6.00;99.90
19342;DHT22;9807;48.258;12.690;2023-12-14T07:26:00;6.00;99.90
19342;DHT22;9807;48.258;12.690;2023-12-14T07:28:29;6.00;99.90
19342;DHT22;9807;48.258;12.690;2023-12-14T07:30:54;6.00;99.90
19342;DHT22;9807;48.258;12.690;2023-12-14T07:33:20;6.00;99.90
19342;DHT22;9807;48.258;12.690;2023-12-14T07:35:46;6.00;99.90
19342;DHT22;9807;48.258;12.690;2023-12-14T07:38:15;6.00;99.90
19342;DHT22;9807;48.258;12.690;2023-12-14T07:40:40;6.00;99.90
19342;DHT22;9807;48.258;12.690;2023-12-14T07:43:07;6.00;99.90
19342;DHT22;9807;48.258;12.690;2023-12-14T07:45:33;6.00;99.90
19342;DHT22;9807;48.258;12.690;2023-12-14T07:47:59;6.00;99.90
19342;DHT22;9807;48.258;12.690;2023-12-14T07:50:25;6.00;99.90
19342;DHT22;9807;48.258;12.690;2023-12-14T07:52:51;6.00;99.90
19342;DHT22;9807;48.258;12.690;2023-12-14T07:55:19;6.00;99.90
19342;DHT22;9807;48.258;12.690;2023-12-14T07:57:45;6.00;99.90
19342;DHT22;9807;48.258;12.690;2023-12-14T08:00:11;6.10;99.90
19342;DHT22;9807;48.258;12.690;2023-12-14T08:02:37;6.10;99.90
19342;DHT22;9807;48.258;12.690;2023-12-14T08:05:03;6.10;99.90
19342;DHT22;9807;48.258;12.690;2023-12-14T08:07:30;6.10;99.90
19342;DHT22;9807;48.258;12.690;2023-12-14T08:09:56;6.20;99.90
19342;DHT22;9807;48.258;12.690;2023-12-14T08:12:22;6.20;99.90
19342;DHT22;9807;48.258;12.690;2023-12-14T08:14:48;6.20;99.90
19342;DHT22;9807;48.258;12.690;2023-12-14T08:17:17;6.30;99.90
19342;DHT22;9807;48.258;12.690;2023-12-14T08:19:43;6.30;99.90
19342;DHT22;9807;48.258;12.690;2023-12-14T08:22:10;6.30;99.90
19342;DHT22;9807;48.258;12.690;2023-12-14T08:24:44;6.20;99.90
19342;DHT22;9807;48.258;12.690;2023-12-14T08:27:09;6.20;99.90
19342;DHT22;9807;48.258;12.690;2023-12-14T08:29:35;6.20;99.90
19342;DHT22;9807;48.258;12.690;2023-12-14T08:32:01;6.10;99.90
19342;DHT22;9807;48.258;12.690;2023-12-14T08:34:27;6.10;99.90
19342;DHT22;9807;48.258;12.690;2023-12-14T08:36:53;6.10;99.90
19342;DHT22;9807;48.258;12.690;2023-12-14T08:39:19;6.20;99.90
19342;DHT22;9807;48.258;12.690;2023-12-14T08:41:48;6.20;99.90
19342;DHT22;9807;48.258;12.690;2023-12-14T08:44:15;6.20;99.90
19342;DHT22;9807;48.258;12.690;2023-12-14T08:46:45;6.20;99.90
19342;DHT22;9807;48.258;12.690;2023-12-14T08:49:11;6.20;99.90
19342;DHT22;9807;48.258;12.690;2023-12-14T08:51:37;6.20;99.90
19342;DHT22;9807;48.258;12.690;2023-12-14T08:54:04;6.20;99.90
19342;DHT22;9807;48.258;12.690;2023-12-14T08:56:29;6.20;99.90
19342;DHT22;9807;48.258;12.690;2023-12-14T08:58:55;6.10;99.90
19342;DHT22;9807;48.258;12.690;2023-12-14T09:01:22;6.10;99.90
19342;DHT22;9807;48.258;12.690;2023-12-14T09:03:48;6.10;99.90
19342;DHT22;9807;48.258;12.690;2023-12-14T09:06:15;6.20;99.90
19342;DHT22;9807;48.258;12.690;2023-12-14T09:08:41;6.20;99.90
19342;DHT22;9807;48.258;12.690;2023-12-14T09:11:07;6.20;99.90
19342;DHT22;9807;48.258;12.690;2023-12-14T09:13:32;6.20;99.90
19342;DHT22;9807;48.258;12.690;2023-12-14T09:15:58;6.30;99.90
19342;DHT22;9807;48.258;12.690;2023-12-14T09:18:24;6.40;99.90
19342;DHT22;9807;48.258;12.690;2023-12-14T09:20:50;6.40;99.90
19342;DHT22;9807;48.258;12.690;2023-12-14T09:23:16;6.40;99.90
19342;DHT22;9807;48.258;12.690;2023-12-14T09:25:42;6.40;99.90
19342;DHT22;9807;48.258;12.690;2023-12-14T09:28:07;6.40;99.90
19342;DHT22;9807;48.258;12.690;2023-12-14T09:30:33;6.40;99.90
19342;DHT22;9807;48.258;12.690;2023-12-14T09:32:59;6.40;99.90
19342;DHT22;9807;48.258;12.690;2023-12-14T09:35:25;6.40;99.90
19342;DHT22;9807;48.258;12.690;2023-12-14T09:37:51;6.40;99.90
19342;DHT22;9807;48.258;12.690;2023-12-14T09:40:17;6.40;99.90
19342;DHT22;9807;48.258;12.690;2023-12-14T09:42:44;6.40;99.90
19342;DHT22;9807;48.258;12.690;2023-12-14T09:45:10;6.40;99.90
19342;DHT22;9807;48.258;12.690;2023-12-14T09:47:37;6.40;99.90
19342;DHT22;9807;48.258;12.690;2023-12-14T09:50:04;6.40;99.90
19342;DHT22;9807;48.258;12.690;2023-12-14T09:52:30;6.50;99.90
19342;DHT22;9807;48.258;12.690;2023-12-14T09:54:57;6.40;99.90
19342;DHT22;9807;48.258;12.690;2023-12-14T09:57:23;6.50;99.90
19342;DHT22;9807;48.258;12.690;2023-12-14T09:59:54;6.50;99.90
19342;DHT22;9807;48.258;12.690;2023-12-14T10:02:27;6.50;99.90
19342;DHT22;9807;48.258;12.690;2023-12-14T10:04:53;6.50;99.90
19342;DHT22;9807;48.258;12.690;2023-12-14T10:07:20;6.60;99.90
19342;DHT22;9807;48.258;12.690;2023-12-14T10:09:47;6.60;99.90
19342;DHT22;9807;48.258;12.690;2023-12-14T10:12:12;6.50;99.90
19342;DHT22;9807;48.258;12.690;2023-12-14T10:14:40;6.50;99.90
19342;DHT22;9807;48.258;12.690;2023-12-14T10:17:19;6.50;99.90
19342;DHT22;9807;48.258;12.690;2023-12-14T10:19:46;6.50;99.90
19342;DHT22;9807;48.258;12.690;2023-12-14T10:22:16;6.50;99.90
19342;DHT22;9807;48.258;12.690;2023-12-14T10:24:52;6.60;99.90
19342;DHT22;9807;48.258;12.690;2023-12-14T10:27:17;6.60;99.90
19342;DHT22;9807;48.258;12.690;2023-12-14T10:29:43;6.70;99.90
19342;DHT22;9807;48.258;12.690;2023-12-14T10:32:11;6.70;99.90
19342;DHT22;9807;48.258;12.690;2023-12-14T10:34:37;6.70;99.90
19342;DHT22;9807;48.258;12.690;2023-12-14T10:37:06;6.80;99.90
19342;DHT22;9807;48.258;12.690;2023-12-14T10:39:34;6.80;99.90
19342;DHT22;9807;48.258;12.690;2023-12-14T10:42:02;6.80;99.90
19342;DHT22;9807;48.258;12.690;2023-12-14T10:44:30;6.80;99.90
19342;DHT22;9807;48.258;12.690;2023-12-14T10:46:58;6.90;99.90
19342;DHT22;9807;48.258;12.690;2023-12-14T10:49:25;6.90;99.90
19342;DHT22;9807;48.258;12.690;2023-12-14T10:51:56;6.90;99.90
19342;DHT22;9807;48.258;12.690;2023-12-14T10:54:24;7.00;99.90
19342;DHT22;9807;48.258;12.690;2023-12-14T10:56:57;7.00;99.90
19342;DHT22;9807;48.258;12.690;2023-12-14T10:59:26;7.10;99.90
19342;DHT22;9807;48.258;12.690;2023-12-14T11:01:53;7.20;99.90
19342;DHT22;9807;48.258;12.690;2023-12-14T11:04:21;7.20;99.90
19342;DHT22;9807;48.258;12.690;2023-12-14T11:06:47;7.20;99.90
19342;DHT22;9807;48.258;12.690;2023-12-14T11:09:17;7.30;99.90
19342;DHT22;9807;48.258;12.690;2023-12-14T11:14:19;7.20;99.90
19342;DHT22;9807;48.258;12.690;2023-12-14T11:16:45;7.20;99.90
19342;DHT22;9807;48.258;12.690;2023-12-14T11:24:33;7.20;99.90
19342;DHT22;9807;48.258;12.690;2023-12-14T11:27:04;7.30;99.90
19342;DHT22;9807;48.258;12.690;2023-12-14T11:29:30;7.30;99.90
19342;DHT22;9807;48.258;12.690;2023-12-14T11:31:55;7.20;99.90
19342;DHT22;9807;48.258;12.690;2023-12-14T11:34:24;7.30;99.90
19342;DHT22;9807;48.258;12.690;2023-12-14T11:36:50;7.30;99.90
19342;DHT22;9807;48.258;12.690;2023-12-14T11:39:15;7.30;99.90
19342;DHT22;9807;48.258;12.690;2023-12-14T11:41:41;7.30;99.90
19342;DHT22;9807;48.258;12.690;2023-12-14T11:44:07;7.20;99.90
19342;DHT22;9807;48.258;12.690;2023-12-14T11:46:32;7.20;99.90
19342;DHT22;9807;48.258;12.690;2023-12-14T11:48:58;7.20;99.90
19342;DHT22;9807;48.258;12.690;2023-12-14T11:51:24;7.20;99.90
19342;DHT22;9807;48.258;12.690;2023-12-14T11:53:55;7.30;99.90
19342;DHT22;9807;48.258;12.690;2023-12-14T11:56:21;7.30;99.90
19342;DHT22;9807;48.258;12.690;2023-12-14T11:58:48;7.30;99.90
19342;DHT22;9807;48.258;12.690;2023-12-14T12:01:18;7.40;99.90
19342;DHT22;9807;48.258;12.690;2023-12-14T12:03:46;7.50;99.90
19342;DHT22;9807;48.258;12.690;2023-12-14T12:06:27;7.50;99.90
19342;DHT22;9807;48.258;12.690;2023-12-14T12:08:53;7.50;99.90
19342;DHT22;9807;48.258;12.690;2023-12-14T12:11:20;7.60;99.90
19342;DHT22;9807;48.258;12.690;2023-12-14T12:13:56;7.50;99.90
19342;DHT22;9807;48.258;12.690;2023-12-14T12:16:22;7.50;99.90
19342;DHT22;9807;48.258;12.690;2023-12-14T12:18:49;7.50;99.90
19342;DHT22;9807;48.258;12.690;2023-12-14T12:21:16;7.50;99.90
19342;DHT22;9807;48.258;12.690;2023-12-14T12:23:42;7.50;99.90
19342;DHT22;9807;48.258;12.690;2023-12-14T12:26:08;7.50;99.90
19342;DHT22;9807;48.258;12.690;2023-12-14T12:28:33;7.50;99.90
19342;DHT22;9807;48.258;12.690;2023-12-14T12:30:59;7.50;99.90
19342;DHT22;9807;48.258;12.690;2023-12-14T12:33:26;7.50;99.90
19342;DHT22;9807;48.258;12.690;2023-12-14T12:35:52;7.60;99.90
19342;DHT22;9807;48.258;12.690;2023-12-14T12:38:18;7.60;99.90
19342;DHT22;9807;48.258;12.690;2023-12-14T12:40:46;7.50;99.90
19342;DHT22;9807;48.258;12.690;2023-12-14T12:43:13;7.50;99.90
19342;DHT22;9807;48.258;12.690;2023-12-14T12:45:40;7.50;99.90
19342;DHT22;9807;48.258;12.690;2023-12-14T12:48:05;7.50;99.90
19342;DHT22;9807;48.258;12.690;2023-12-14T12:50:32;7.50;99.90
19342;DHT22;9807;48.258;12.690;2023-12-14T12:52:58;7.40;99.90
19342;DHT22;9807;48.258;12.690;2023-12-14T12:55:23;7.50;99.90
19342;DHT22;9807;48.258;12.690;2023-12-14T12:57:49;7.50;99.90
19342;DHT22;9807;48.258;12.690;2023-12-14T13:00:15;7.50;99.90
19342;DHT22;9807;48.258;12.690;2023-12-14T13:02:42;7.60;99.90
19342;DHT22;9807;48.258;12.690;2023-12-14T13:05:09;7.60;99.90
19342;DHT22;9807;48.258;12.690;2023-12-14T13:07:36;7.60;99.90
19342;DHT22;9807;48.258;12.690;2023-12-14T13:10:05;7.70;99.90
19342;DHT22;9807;48.258;12.690;2023-12-14T13:12:32;7.60;99.90
19342;DHT22;9807;48.258;12.690;2023-12-14T13:14:59;7.70;99.90
19342;DHT22;9807;48.258;12.690;2023-12-14T13:17:25;7.60;99.90
19342;DHT22;9807;48.258;12.690;2023-12-14T13:19:51;7.60;99.90
19342;DHT22;9807;48.258;12.690;2023-12-14T13:22:17;7.60;99.90
19342;DHT22;9807;48.258;12.690;2023-12-14T13:24:43;7.60;99.90
19342;DHT22;9807;48.258;12.690;2023-12-14T13:27:09;7.70;99.90
19342;DHT22;9807;48.258;12.690;2023-12-14T13:29:34;7.70;99.90
19342;DHT22;9807;48.258;12.690;2023-12-14T13:32:01;7.70;99.90
19342;DHT22;9807;48.258;12.690;2023-12-14T13:34:27;7.80;99.90
19342;DHT22;9807;48.258;12.690;2023-12-14T13:36:54;7.90;99.90
19342;DHT22;9807;48.258;12.690;2023-12-14T13:39:19;8.00;99.90
19342;DHT22;9807;48.258;12.690;2023-12-14T13:41:45;7.90;99.90
19342;DHT22;9807;48.258;12.690;2023-12-14T13:44:11;7.90;99.90
19342;DHT22;9807;48.258;12.690;2023-12-14T13:46:36;7.90;99.90
19342;DHT22;9807;48.258;12.690;2023-12-14T13:49:02;7.80;99.90
19342;DHT22;9807;48.258;12.690;2023-12-14T13:51:28;7.80;99.90
19342;DHT22;9807;48.258;12.690;2023-12-14T13:53:54;7.70;99.90
19342;DHT22;9807;48.258;12.690;2023-12-14T13:56:20;7.70;99.90
19342;DHT22;9807;48.258;12.690;2023-12-14T13:58:46;7.60;99.90
19342;DHT22;9807;48.258;12.690;2023-12-14T14:01:11;7.60;99.90
19342;DHT22;9807;48.258;12.690;2023-12-14T14:03:37;7.60;99.90
19342;DHT22;9807;48.258;12.690;2023-12-14T14:06:04;7.60;99.90
19342;DHT22;9807;48.258;12.690;2023-12-14T14:08:30;7.60;99.90
19342;DHT22;9807;48.258;12.690;2023-12-14T14:11:00;7.60;99.90
19342;DHT22;9807;48.258;12.690;2023-12-14T14:13:26;7.60;99.90
19342;DHT22;9807;48.258;12.690;2023-12-14T14:15:52;7.60;99.90
19342;DHT22;9807;48.258;12.690;2023-12-14T14:18:18;7.60;99.90
19342;DHT22;9807;48.258;12.690;2023-12-14T14:20:47;7.60;99.90
19342;DHT22;9807;48.258;12.690;2023-12-14T14:23:12;7.60;99.90
19342;DHT22;9807;48.258;12.690;2023-12-14T14:25:38;7.60;99.90
19342;DHT22;9807;48.258;12.690;2023-12-14T14:28:04;7.50;99.90
19342;DHT22;9807;48.258;12.690;2023-12-14T14:30:30;7.50;99.90
19342;DHT22;9807;48.258;12.690;2023-12-14T14:32:56;7.50;99.90
19342;DHT22;9807;48.258;12.690;2023-12-14T14:35:22;7.50;99.90
19342;DHT22;9807;48.258;12.690;2023-12-14T14:37:49;7.50;99.90
19342;DHT22;9807;48.258;12.690;2023-12-14T14:40:16;7.50;99.90
19342;DHT22;9807;48.258;12.690;2023-12-14T14:42:41;7.50;99.90
19342;DHT22;9807;48.258;12.690;2023-12-14T14:45:08;7.50;99.90
19342;DHT22;9807;48.258;12.690;2023-12-14T14:47:34;7.50;99.90
19342;DHT22;9807;48.258;12.690;2023-12-14T14:50:01;7.50;99.90
19342;DHT22;9807;48.258;12.690;2023-12-14T14:52:30;7.60;99.90
19342;DHT22;9807;48.258;12.690;2023-12-14T14:54:56;7.60;99.90
19342;DHT22;9807;48.258;12.690;2023-12-14T14:57:21;7.60;99.90
19342;DHT22;9807;48.258;12.690;2023-12-14T14:59:47;7.50;99.90
19342;DHT22;9807;48.258;12.690;2023-12-14T15:02:14;7.50;99.90
19342;DHT22;9807;48.258;12.690;2023-12-14T15:04:39;7.50;99.90
19342;DHT22;9807;48.258;12.690;2023-12-14T15:07:05;7.50;99.90
19342;DHT22;9807;48.258;12.690;2023-12-14T15:09:30;7.50;99.90
19342;DHT22;9807;48.258;12.690;2023-12-14T15:11:56;7.40;99.90
19342;DHT22;9807;48.258;12.690;2023-12-14T15:14:22;7.40;99.90
19342;DHT22;9807;48.258;12.690;2023-12-14T15:16:48;7.30;99.90
19342;DHT22;9807;48.258;12.690;2023-12-14T15:19:14;7.40;99.90
19342;DHT22;9807;48.258;12.690;2023-12-14T15:21:40;7.40;99.90
19342;DHT22;9807;48.258;12.690;2023-12-14T15:24:06;7.30;99.90
19342;DHT22;9807;48.258;12.690;2023-12-14T15:26:32;7.30;99.90
19342;DHT22;9807;48.258;12.690;2023-12-14T15:28:58;7.30;99.90
19342;DHT22;9807;48.258;12.690;2023-12-14T15:31:24;7.30;99.90
19342;DHT22;9807;48.258;12.690;2023-12-14T15:33:50;7.30;99.90
19342;DHT22;9807;48.258;12.690;2023-12-14T15:36:16;7.40;99.90
19342;DHT22;9807;48.258;12.690;2023-12-14T15:38:41;7.40;99.90
19342;DHT22;9807;48.258;12.690;2023-12-14T15:41:12;7.40;99.90
19342;DHT22;9807;48.258;12.690;2023-12-14T15:43:37;7.40;99.90
19342;DHT22;9807;48.258;12.690;2023-12-14T15:46:03;7.30;99.90